Time;durP1;ratioP1;P1;durP2;ratioP2;P2;SDS_P1;SDS_P2;PMS_P1;PMS_P2;Temp;Humidity;BMP_temperature;BMP_pressure;BME280_temperature;BME280_humidity;BME280_pressure;Samples;Min_cycle;Max_cycle;Signal;HPM_P1;HPM_P2
2022/09/09 00:01:24;;;;;;;5.93;1.40;;;;;;;14.05;100.00;95558.13;4972537;28;24441;-75
2022/09/09 00:03:58;;;;;;;1.83;1.00;;;;;;;14.12;100.00;95550.66;4971339;28;24490;-74
2022/09/09 00:06:30;;;;;;;3.58;0.98;;;;;;;14.19;100.00;95554.41;4968259;28;24453;-74
2022/09/09 00:09:03;;;;;;;2.92;1.20;;;;;;;14.03;100.00;95555.66;4965876;28;24434;-74
2022/09/09 00:11:40;;;;;;;3.38;1.23;;;;;;;14.12;100.00;95542.81;4970866;28;24437;-74
2022/09/09 00:14:16;;;;;;;1.63;0.90;;;;;;;14.20;100.00;95541.28;4960391;28;24417;-74
2022/09/09 00:16:46;;;;;;;2.08;0.93;;;;;;;14.25;100.00;95533.91;4971884;28;25164;-74
2022/09/09 00:19:23;;;;;;;2.45;0.80;;;;;;;14.26;100.00;95539.94;4972062;28;24504;-74
2022/09/09 00:22:01;;;;;;;1.95;0.93;;;;;;;14.27;100.00;95539.81;4968347;28;24444;-74
2022/09/09 00:24:33;;;;;;;2.90;1.10;;;;;;;14.39;100.00;95535.41;4972122;28;24496;-74
2022/09/09 00:27:05;;;;;;;2.38;0.82;;;;;;;14.35;100.00;95530.53;4969930;28;24832;-75
2022/09/09 00:29:39;;;;;;;4.80;0.90;;;;;;;14.34;100.00;95534.94;4972036;28;24779;-75
2022/09/09 00:32:13;;;;;;;2.40;1.20;;;;;;;14.41;100.00;95535.25;4971829;28;24570;-74
2022/09/09 00:34:50;;;;;;;3.03;1.10;;;;;;;14.45;100.00;95526.25;4971785;28;24504;-74
2022/09/09 00:37:20;;;;;;;2.88;1.00;;;;;;;14.44;100.00;95535.84;4967150;28;24436;-74
2022/09/09 00:39:48;;;;;;;3.72;1.13;;;;;;;14.42;100.00;95540.34;4971502;28;24970;-74
2022/09/09 00:42:17;;;;;;;2.97;1.10;;;;;;;14.45;100.00;95542.69;4971372;28;24987;-74
2022/09/09 00:44:59;;;;;;;3.78;1.27;;;;;;;14.49;100.00;95530.25;4971477;28;24523;-74
2022/09/09 00:47:44;;;;;;;13.18;1.17;;;;;;;14.51;100.00;95534.41;4963470;28;24450;-74
2022/09/09 00:50:24;;;;;;;5.65;1.30;;;;;;;14.53;100.00;95526.47;4966950;28;24433;-74
2022/09/09 00:53:02;;;;;;;3.53;1.05;;;;;;;14.57;100.00;95532.25;4964087;28;24533;-74
2022/09/09 00:55:40;;;;;;;2.40;0.90;;;;;;;14.61;100.00;95534.50;4966421;28;25021;-74
2022/09/09 00:58:08;;;;;;;3.60;1.13;;;;;;;14.60;100.00;95529.41;4971372;28;24429;-74
2022/09/09 01:00:43;;;;;;;2.08;0.88;;;;;;;14.56;100.00;95535.81;4970726;28;24995;-74
2022/09/09 01:03:23;;;;;;;5.03;0.97;;;;;;;14.61;100.00;95536.25;4971263;28;24673;-74
2022/09/09 01:06:02;;;;;;;3.28;0.98;;;;;;;14.59;100.00;95536.41;4971111;28;25042;-74
2022/09/09 01:08:45;;;;;;;2.00;0.80;;;;;;;14.46;100.00;95543.53;4966331;28;24444;-74
2022/09/09 01:11:21;;;;;;;2.45;0.98;;;;;;;14.40;100.00;95544.88;4971327;28;24442;-74
2022/09/09 01:13:53;;;;;;;2.72;0.90;;;;;;;14.43;100.00;95543.78;4963218;28;24429;-74
2022/09/09 01:16:20;;;;;;;6.53;1.05;;;;;;;14.43;100.00;95551.63;4970961;28;24432;-74
2022/09/09 01:18:52;;;;;;;3.77;1.20;;;;;;;14.37;100.00;95559.91;4970926;28;24438;-74
2022/09/09 01:21:26;;;;;;;5.30;1.00;;;;;;;14.29;100.00;95563.97;4969373;28;24496;-74
2022/09/09 01:24:10;;;;;;;3.10;1.00;;;;;;;14.32;100.00;95560.28;4967261;28;24466;-74
2022/09/09 01:26:40;;;;;;;2.78;1.00;;;;;;;14.10;100.00;95565.59;4969411;28;24472;-74
2022/09/09 01:29:09;;;;;;;2.10;0.98;;;;;;;14.13;100.00;95573.97;4967486;28;24440;-74
2022/09/09 01:31:38;;;;;;;3.05;0.88;;;;;;;14.13;100.00;95579.19;4970749;28;24450;-73
2022/09/09 01:34:11;;;;;;;2.73;1.10;;;;;;;14.22;100.00;95575.00;4966963;28;24503;-73
2022/09/09 01:36:43;;;;;;;2.30;0.95;;;;;;;13.78;100.00;95563.75;4970851;28;24965;-73
2022/09/09 01:39:10;;;;;;;3.83;1.10;;;;;;;13.75;100.00;95543.97;4970896;28;24996;-74
2022/09/09 01:41:39;;;;;;;4.65;0.98;;;;;;;13.76;100.00;95544.84;4962834;28;24449;-74
2022/09/09 01:44:06;;;;;;;2.55;0.75;;;;;;;13.93;100.00;95548.69;4970846;28;24428;-73
2022/09/09 01:46:33;;;;;;;3.30;0.70;;;;;;;14.04;100.00;95546.88;4971013;28;24468;-73
2022/09/09 01:49:01;;;;;;;1.73;0.60;;;;;;;14.17;100.00;95551.13;4970996;28;24437;-74
2022/09/09 01:51:28;;;;;;;1.80;0.60;;;;;;;14.23;100.00;95548.81;4970510;28;24990;-73
2022/09/09 01:53:55;;;;;;;2.10;0.70;;;;;;;14.30;100.00;95546.56;4970815;28;25090;-74
2022/09/09 01:56:37;;;;;;;1.63;0.70;;;;;;;14.89;100.00;95548.66;4970813;28;25186;-75
2022/09/09 01:59:19;;;;;;;2.45;0.85;;;;;;;14.61;100.00;95533.66;4970796;28;24472;-74
2022/09/09 02:02:08;;;;;;;3.47;0.80;;;;;;;14.89;100.00;95533.00;4970462;28;24489;-74
2022/09/09 02:04:40;;;;;;;3.13;0.90;;;;;;;14.48;100.00;95545.06;4972482;28;24970;-74
2022/09/09 02:07:21;;;;;;;1.70;0.50;;;;;;;14.21;100.00;95550.75;4971693;28;24457;-74
2022/09/09 02:09:53;;;;;;;2.42;0.90;;;;;;;14.02;100.00;95551.41;4962167;28;24445;-74
2022/09/09 02:12:23;;;;;;;2.08;0.65;;;;;;;14.03;100.00;95554.81;4971532;28;24448;-74
2022/09/09 02:14:56;;;;;;;2.73;0.70;;;;;;;13.94;100.00;95555.53;4971791;28;24501;-74
2022/09/09 02:17:29;;;;;;;1.13;0.65;;;;;;;14.04;100.00;95551.25;4974527;28;24429;-74
2022/09/09 02:20:01;;;;;;;1.60;0.67;;;;;;;14.03;100.00;95554.81;4973187;28;24507;-74
2022/09/09 02:22:29;;;;;;;1.33;0.50;;;;;;;13.85;100.00;95571.91;4974139;28;24457;-74
2022/09/09 02:24:59;;;;;;;1.25;0.60;;;;;;;13.87;100.00;95555.22;4974204;28;24434;-74
2022/09/09 02:27:26;;;;;;;0.90;0.43;;;;;;;13.92;100.00;95555.69;4973855;28;24460;-74
2022/09/09 02:29:57;;;;;;;2.45;0.70;;;;;;;13.97;100.00;95547.50;4972412;28;24443;-74
2022/09/09 02:32:25;;;;;;;0.73;0.40;;;;;;;13.90;100.00;95544.53;4974085;28;24452;-74
2022/09/09 02:34:57;;;;;;;1.70;0.50;;;;;;;13.94;100.00;95545.13;4972100;28;24621;-74
2022/09/09 02:37:30;;;;;;;1.63;0.50;;;;;;;13.95;100.00;95546.81;4969153;28;24466;-74
2022/09/09 02:39:56;;;;;;;1.50;0.50;;;;;;;13.95;100.00;95533.78;4972797;28;24429;-74
2022/09/09 02:42:23;;;;;;;1.40;0.47;;;;;;;13.99;100.00;95530.81;4973972;28;24484;-74
2022/09/09 02:44:50;;;;;;;1.70;0.60;;;;;;;14.01;100.00;95530.66;4971694;28;24438;-74
2022/09/09 02:47:28;;;;;;;1.42;0.65;;;;;;;13.92;100.00;95526.22;4973752;28;25039;-74
2022/09/09 02:50:03;;;;;;;1.52;0.50;;;;;;;13.90;100.00;95522.88;4972980;28;24438;-74
2022/09/09 02:52:39;;;;;;;3.08;0.63;;;;;;;13.79;100.00;95516.78;4973472;28;24449;-74
2022/09/09 02:55:12;;;;;;;2.17;0.50;;;;;;;13.87;100.00;95515.31;4972122;28;25005;-74
2022/09/09 02:57:40;;;;;;;3.40;1.00;;;;;;;13.97;100.00;95518.84;4973773;28;24439;-74
2022/09/09 03:00:08;;;;;;;3.37;0.80;;;;;;;13.80;100.00;95526.25;4973700;28;24518;-74
2022/09/09 03:02:37;;;;;;;2.15;0.60;;;;;;;13.87;100.00;95517.94;4973173;28;25025;-74
2022/09/09 03:05:04;;;;;;;1.38;0.65;;;;;;;13.91;100.00;95512.38;4973722;28;24438;-74
2022/09/09 03:07:31;;;;;;;1.63;0.57;;;;;;;13.92;100.00;95523.59;4969526;28;24442;-74
2022/09/09 03:09:58;;;;;;;2.80;0.60;;;;;;;13.93;100.00;95528.69;4966797;28;24440;-74
2022/09/09 03:12:25;;;;;;;3.08;0.80;;;;;;;13.89;100.00;95511.66;4969766;28;24453;-74
2022/09/09 03:14:51;;;;;;;2.05;0.60;;;;;;;13.70;100.00;95514.06;4973320;28;24426;-74
2022/09/09 03:17:18;;;;;;;1.55;0.70;;;;;;;13.50;100.00;95515.66;4973503;28;24430;-74
2022/09/09 03:19:46;;;;;;;4.95;0.65;;;;;;;13.45;100.00;95521.19;4973260;28;24448;-74
2022/09/09 03:22:13;;;;;;;3.20;0.80;;;;;;;13.53;100.00;95516.25;4973047;28;24476;-74
2022/09/09 03:24:40;;;;;;;2.10;0.80;;;;;;;13.57;100.00;95527.22;4972916;28;24508;-74
2022/09/09 03:27:06;;;;;;;1.17;0.50;;;;;;;13.48;100.00;95530.53;4973151;28;24461;-74
2022/09/09 03:29:34;;;;;;;3.20;0.82;;;;;;;13.43;100.00;95524.88;4972864;28;24974;-74
2022/09/09 03:32:00;;;;;;;1.52;0.60;;;;;;;13.46;100.00;95528.06;4972799;28;24473;-74
2022/09/09 03:34:27;;;;;;;2.00;0.80;;;;;;;13.36;100.00;95528.91;4973133;28;24440;-74
2022/09/09 03:36:55;;;;;;;2.28;0.80;;;;;;;13.07;100.00;95537.97;4969648;28;24438;-74
2022/09/09 03:39:21;;;;;;;2.70;0.73;;;;;;;13.06;100.00;95543.28;4972723;28;24442;-74
2022/09/09 03:41:48;;;;;;;2.90;0.50;;;;;;;13.18;100.00;95531.13;4972528;28;24871;-74
2022/09/09 03:44:15;;;;;;;1.30;0.60;;;;;;;13.20;100.00;95537.88;4972687;28;24433;-74
2022/09/09 03:46:41;;;;;;;2.63;0.73;;;;;;;13.09;100.00;95537.88;4972853;28;24441;-74
2022/09/09 03:49:10;;;;;;;2.35;0.73;;;;;;;12.94;100.00;95529.47;4972836;28;24445;-74
2022/09/09 03:51:36;;;;;;;2.75;1.00;;;;;;;12.84;100.00;95523.28;4972297;28;24446;-74
2022/09/09 03:54:04;;;;;;;3.33;0.90;;;;;;;12.58;100.00;95533.88;4972544;28;25380;-74
2022/09/09 03:56:31;;;;;;;3.40;0.80;;;;;;;12.59;100.00;95540.72;4970320;28;24538;-74
2022/09/09 03:58:58;;;;;;;2.92;0.80;;;;;;;12.64;100.00;95539.53;4972762;28;24441;-74
2022/09/09 04:01:24;;;;;;;1.73;0.60;;;;;;;12.73;100.00;95544.06;4964187;28;24812;-74
2022/09/09 04:03:52;;;;;;;1.83;0.65;;;;;;;12.72;100.00;95532.00;4969059;28;24444;-74
2022/09/09 04:06:20;;;;;;;5.20;0.90;;;;;;;12.80;100.00;95535.69;4972328;28;24445;-74
2022/09/09 04:08:48;;;;;;;2.55;0.88;;;;;;;12.90;100.00;95537.59;4972584;28;24453;-75
2022/09/09 04:11:16;;;;;;;2.20;0.70;;;;;;;12.95;100.00;95531.09;4969200;28;24446;-75
2022/09/09 04:13:44;;;;;;;2.22;0.80;;;;;;;13.03;100.00;95536.53;4971993;28;24444;-73
2022/09/09 04:16:12;;;;;;;1.33;0.70;;;;;;;13.08;100.00;95538.78;4966584;28;24788;-73
2022/09/09 04:18:40;;;;;;;1.95;0.70;;;;;;;13.09;100.00;95535.25;4972236;28;24465;-73
2022/09/09 04:21:07;;;;;;;2.60;0.90;;;;;;;13.00;100.00;95534.16;4971363;28;24922;-73
2022/09/09 04:23:34;;;;;;;2.03;0.70;;;;;;;12.89;100.00;95535.94;4967020;28;24441;-73
2022/09/09 04:26:02;;;;;;;2.00;0.88;;;;;;;12.88;100.00;95544.69;4972226;28;24440;-73
2022/09/09 04:28:33;;;;;;;2.60;0.73;;;;;;;12.97;100.00;95544.78;4971963;28;24816;-73
2022/09/09 04:31:05;;;;;;;2.50;0.93;;;;;;;12.97;100.00;95542.19;4972236;28;24432;-73
2022/09/09 04:33:32;;;;;;;2.72;1.02;;;;;;;13.07;100.00;95545.75;4971837;28;24436;-73
2022/09/09 04:35:58;;;;;;;2.47;0.88;;;;;;;13.13;100.00;95544.47;4966043;28;25085;-72
2022/09/09 04:38:25;;;;;;;3.65;0.80;;;;;;;13.12;100.00;95552.38;4970992;28;24434;-72
2022/09/09 04:40:53;;;;;;;2.50;1.30;;;;;;;12.83;100.00;95552.84;4968615;28;24646;-73
2022/09/09 04:43:22;;;;;;;2.22;1.02;;;;;;;12.65;100.00;95547.25;4971637;28;24792;-73
2022/09/09 04:45:51;;;;;;;3.65;0.98;;;;;;;12.60;100.00;95541.53;4971530;28;24524;-73
2022/09/09 04:48:18;;;;;;;2.15;0.73;;;;;;;12.52;100.00;95549.06;4971045;28;25093;-73
2022/09/09 04:50:46;;;;;;;1.92;0.88;;;;;;;12.65;100.00;95562.81;4971009;28;24440;-73
2022/09/09 04:53:12;;;;;;;1.98;0.98;;;;;;;12.66;100.00;95559.28;4971030;28;24484;-73
2022/09/09 04:55:39;;;;;;;2.75;0.80;;;;;;;12.71;100.00;95554.56;4970732;28;25007;-73
2022/09/09 04:58:06;;;;;;;3.15;0.70;;;;;;;12.86;100.00;95559.56;4969061;28;24441;-72
2022/09/09 05:00:33;;;;;;;2.08;1.00;;;;;;;12.94;100.00;95552.00;4972304;28;24433;-73
2022/09/09 05:03:03;;;;;;;1.40;0.77;;;;;;;12.92;100.00;95559.09;4973262;28;24452;-73
2022/09/09 05:05:30;;;;;;;1.98;0.88;;;;;;;12.92;100.00;95559.94;4968860;28;24433;-73
2022/09/09 05:08:01;;;;;;;1.23;0.63;;;;;;;13.01;100.00;95559.22;4971291;28;24816;-73
2022/09/09 05:10:28;;;;;;;2.83;0.93;;;;;;;13.14;100.00;95559.13;4970519;28;24432;-73
2022/09/09 05:12:55;;;;;;;1.77;0.83;;;;;;;13.18;100.00;95563.16;4963612;28;25017;-73
2022/09/09 05:15:22;;;;;;;1.92;0.88;;;;;;;13.19;100.00;95570.00;4971248;28;24891;-72
2022/09/09 05:17:49;;;;;;;1.90;0.90;;;;;;;13.05;100.00;95565.88;4971290;28;24436;-73
2022/09/09 05:20:16;;;;;;;3.08;0.85;;;;;;;12.82;100.00;95572.78;4971028;28;24955;-73
2022/09/09 05:22:43;;;;;;;1.80;1.00;;;;;;;12.55;100.00;95574.84;4968123;28;24999;-74
2022/09/09 05:25:10;;;;;;;1.48;0.70;;;;;;;12.64;100.00;95574.13;4962608;28;24442;-73
2022/09/09 05:27:37;;;;;;;1.50;0.70;;;;;;;12.80;100.00;95577.28;4970438;28;24458;-73
2022/09/09 05:30:04;;;;;;;1.52;0.77;;;;;;;12.93;100.00;95581.53;4969819;28;24532;-73
2022/09/09 05:32:34;;;;;;;2.90;1.00;;;;;;;12.91;100.00;95580.84;4966708;28;24441;-73
2022/09/09 05:35:01;;;;;;;2.92;0.90;;;;;;;12.81;100.00;95580.69;4970817;28;24910;-72
2022/09/09 05:37:30;;;;;;;1.33;0.60;;;;;;;12.94;100.00;95584.03;4970560;28;24492;-72
2022/09/09 05:39:56;;;;;;;2.65;0.90;;;;;;;12.94;100.00;95581.44;4971003;28;24465;-73
2022/09/09 05:42:23;;;;;;;3.00;0.70;;;;;;;13.02;100.00;95586.06;4968941;28;24448;-73
2022/09/09 05:44:50;;;;;;;1.02;0.70;;;;;;;13.12;100.00;95574.00;4971221;28;24430;-73
2022/09/09 05:47:17;;;;;;;4.78;1.00;;;;;;;13.15;100.00;95578.16;4968507;28;24897;-72
2022/09/09 05:49:43;;;;;;;1.70;0.82;;;;;;;13.17;100.00;95579.69;4974962;28;24449;-73
2022/09/09 05:52:10;;;;;;;3.25;1.08;;;;;;;13.37;100.00;95575.59;4969724;28;24438;-74
2022/09/09 05:54:38;;;;;;;3.55;0.93;;;;;;;13.41;100.00;95584.00;4975564;28;24437;-73
2022/09/09 05:57:05;;;;;;;2.67;1.08;;;;;;;13.50;100.00;95578.91;4976525;28;24438;-74
2022/09/09 05:59:32;;;;;;;2.83;1.20;;;;;;;13.52;100.00;95573.59;4974123;28;24533;-72
2022/09/09 06:01:58;;;;;;;3.08;0.80;;;;;;;13.46;100.00;95569.69;4973892;28;25018;-72
2022/09/09 06:04:25;;;;;;;2.58;0.90;;;;;;;13.43;100.00;95572.53;4973600;28;24540;-72
2022/09/09 06:06:51;;;;;;;2.30;0.70;;;;;;;13.25;100.00;95577.38;4973610;28;24481;-72
2022/09/09 06:09:18;;;;;;;2.10;0.80;;;;;;;13.19;100.00;95585.59;4974008;28;24461;-73
2022/09/09 06:11:46;;;;;;;2.90;0.77;;;;;;;13.24;100.00;95585.31;4971338;28;24446;-73
2022/09/09 06:14:13;;;;;;;2.20;1.00;;;;;;;13.41;100.00;95573.59;4971683;28;24429;-69
2022/09/09 06:16:42;;;;;;;2.33;0.80;;;;;;;13.66;100.00;95586.34;4973668;28;25010;-73
2022/09/09 06:19:08;;;;;;;5.15;1.35;;;;;;;13.65;100.00;95576.91;4972066;28;24507;-73
2022/09/09 06:21:36;;;;;;;2.70;1.00;;;;;;;13.67;100.00;95585.41;4973492;28;24796;-73
2022/09/09 06:24:03;;;;;;;2.00;0.80;;;;;;;13.79;100.00;95586.22;4972919;28;24918;-73
2022/09/09 06:26:32;;;;;;;3.13;0.90;;;;;;;13.89;100.00;95583.72;4973828;28;25002;-73
2022/09/09 06:29:03;;;;;;;1.53;0.83;;;;;;;13.85;100.00;95577.94;4971064;28;24460;-72
2022/09/09 06:31:30;;;;;;;3.50;0.98;;;;;;;13.93;100.00;95574.72;4961799;28;24936;-73
2022/09/09 06:33:58;;;;;;;1.90;0.80;;;;;;;14.04;100.00;95574.69;4969966;28;24561;-72
2022/09/09 06:36:27;;;;;;;3.33;0.90;;;;;;;14.12;100.00;95579.28;4966806;28;24483;-74
2022/09/09 06:38:54;;;;;;;1.60;0.70;;;;;;;14.16;100.00;95578.09;4973280;28;24434;-75
2022/09/09 06:41:23;;;;;;;1.85;1.05;;;;;;;14.05;100.00;95591.97;4971370;28;24442;-75
2022/09/09 06:43:49;;;;;;;2.65;1.08;;;;;;;14.05;100.00;95584.16;4972730;28;24465;-72
2022/09/09 06:46:19;;;;;;;1.05;0.65;;;;;;;14.09;100.00;95588.19;4972041;28;24429;-70
2022/09/09 06:48:46;;;;;;;1.20;0.80;;;;;;;14.25;100.00;95582.59;4970192;28;24548;-71
2022/09/09 06:51:15;;;;;;;2.83;0.90;;;;;;;14.50;100.00;95584.06;4968728;28;24551;-71
2022/09/09 06:53:44;;;;;;;2.13;0.90;;;;;;;14.46;100.00;95588.66;4972761;28;24437;-74
2022/09/09 06:56:22;;;;;;;2.15;0.93;;;;;;;14.56;100.00;95590.53;4966640;28;24796;-74
2022/09/09 06:58:50;;;;;;;2.13;0.90;;;;;;;14.67;100.00;95596.53;4972335;28;24500;-74
2022/09/09 07:01:20;;;;;;;2.78;0.90;;;;;;;14.63;100.00;95596.91;4973437;28;24481;-74
2022/09/09 07:03:49;;;;;;;3.15;1.10;;;;;;;14.65;100.00;95587.22;4971343;28;24473;-79
2022/09/09 07:06:18;;;;;;;2.57;0.97;;;;;;;14.86;100.00;95595.03;4974075;28;24442;-76
2022/09/09 07:08:50;;;;;;;2.42;0.80;;;;;;;14.65;100.00;95589.81;4963226;28;24552;-75
2022/09/09 07:11:17;;;;;;;2.17;0.98;;;;;;;14.77;100.00;95588.78;4972908;28;24488;-75
2022/09/09 07:13:43;;;;;;;1.98;0.90;;;;;;;14.88;100.00;95593.94;4972953;28;24460;-76
2022/09/09 07:16:12;;;;;;;2.05;1.00;;;;;;;14.86;100.00;95589.81;4970023;28;24464;-76
2022/09/09 07:18:41;;;;;;;3.30;0.80;;;;;;;14.96;100.00;95590.72;4966069;28;24448;-76
2022/09/09 07:21:09;;;;;;;1.65;0.90;;;;;;;15.08;100.00;95581.84;4968402;28;24552;-75
2022/09/09 07:23:36;;;;;;;3.30;1.00;;;;;;;15.44;100.00;95590.97;4971005;28;24433;-74
2022/09/09 07:26:07;;;;;;;3.05;0.90;;;;;;;15.87;100.00;95591.69;4971184;28;24495;-76
2022/09/09 07:28:34;;;;;;;2.75;0.80;;;;;;;15.83;100.00;95596.38;4971548;28;25022;-75
2022/09/09 07:31:02;;;;;;;2.92;1.02;;;;;;;15.87;100.00;95586.47;4963936;28;25009;-75
2022/09/09 07:33:30;;;;;;;3.10;1.25;;;;;;;15.73;100.00;95591.13;4969894;28;24843;-76
2022/09/09 07:36:06;;;;;;;3.63;1.13;;;;;;;15.68;100.00;95600.28;4968541;28;24461;-76
2022/09/09 07:38:38;;;;;;;2.75;0.90;;;;;;;15.64;100.00;95597.09;4972474;28;24609;-76
2022/09/09 07:41:07;;;;;;;5.00;1.10;;;;;;;15.65;100.00;95595.34;4970912;28;24448;-75
2022/09/09 07:43:34;;;;;;;2.73;1.13;;;;;;;15.83;100.00;95585.91;4966393;28;24803;-76
2022/09/09 07:46:01;;;;;;;2.67;1.00;;;;;;;16.01;100.00;95580.88;4971121;28;24448;-76
2022/09/09 07:48:28;;;;;;;2.20;0.77;;;;;;;16.12;100.00;95579.94;4971637;28;24517;-75
2022/09/09 07:51:08;;;;;;;18.25;1.65;;;;;;;16.06;100.00;95585.72;4972264;28;24434;-76
2022/09/09 07:53:36;;;;;;;3.00;1.00;;;;;;;16.24;100.00;95585.88;4966405;28;25017;-77
2022/09/09 07:56:09;;;;;;;2.83;1.20;;;;;;;16.49;100.00;95595.00;4968767;28;24991;-76
2022/09/09 07:58:36;;;;;;;4.00;1.10;;;;;;;16.76;100.00;95607.41;4971857;28;24529;-77
2022/09/09 08:01:07;;;;;;;1.70;0.83;;;;;;;16.88;100.00;95614.97;4972843;28;24444;-76
2022/09/09 08:03:34;;;;;;;3.80;1.02;;;;;;;16.91;100.00;95609.47;4978011;28;24437;-77
2022/09/09 08:06:02;;;;;;;2.60;1.17;;;;;;;17.21;100.00;95609.44;4966228;28;24445;-76
2022/09/09 08:08:31;;;;;;;2.75;1.08;;;;;;;17.24;100.00;95609.97;4972895;28;24484;-76
2022/09/09 08:11:07;;;;;;;3.05;1.17;;;;;;;17.20;100.00;95602.53;4971469;28;24441;-76
2022/09/09 08:13:34;;;;;;;3.45;1.10;;;;;;;17.41;100.00;95600.56;4971896;28;24500;-75
2022/09/09 08:16:09;;;;;;;4.20;1.10;;;;;;;17.59;100.00;95601.47;4967864;28;24442;-76
2022/09/09 08:18:37;;;;;;;5.05;1.15;;;;;;;17.91;97.96;95605.53;4964749;28;24437;-76
2022/09/09 08:21:12;;;;;;;6.25;1.23;;;;;;;18.11;96.69;95607.06;4972138;28;24440;-75
2022/09/09 08:23:41;;;;;;;3.30;1.13;;;;;;;18.59;94.33;95607.72;4968558;28;24495;-76
2022/09/09 08:26:11;;;;;;;2.75;0.90;;;;;;;18.53;94.31;95598.63;4966494;28;24932;-75
2022/09/09 08:28:38;;;;;;;4.55;1.13;;;;;;;18.85;90.24;95595.53;4970678;28;24532;-76
2022/09/09 08:31:10;;;;;;;6.22;1.30;;;;;;;19.00;89.08;95598.44;4972301;28;24448;-76
2022/09/09 08:33:38;;;;;;;2.22;0.90;;;;;;;18.75;88.50;95600.00;4974836;28;24811;-76
2022/09/09 08:36:05;;;;;;;3.85;1.33;;;;;;;18.28;90.80;95607.22;4971401;28;24504;-75
2022/09/09 08:38:33;;;;;;;4.60;1.05;;;;;;;18.17;92.17;95602.19;4971836;28;24433;-75
2022/09/09 08:41:11;;;;;;;2.22;0.80;;;;;;;18.07;92.97;95612.75;4972217;28;24994;-76
2022/09/09 08:43:38;;;;;;;6.00;1.10;;;;;;;17.76;91.90;95605.16;4971715;28;24468;-76
2022/09/09 08:46:13;;;;;;;4.70;1.15;;;;;;;17.63;92.12;95615.94;4968650;28;24808;-76
2022/09/09 08:48:52;;;;;;;3.42;0.90;;;;;;;17.65;93.48;95623.66;4971183;28;24476;-75
2022/09/09 08:51:19;;;;;;;4.80;1.40;;;;;;;17.44;92.54;95613.38;4971835;28;24447;-75
2022/09/09 08:53:50;;;;;;;5.22;1.20;;;;;;;17.35;91.54;95620.28;4978135;28;24796;-74
2022/09/09 08:56:22;;;;;;;5.13;1.17;;;;;;;17.79;90.56;95623.19;4968793;28;24445;-74
2022/09/09 08:58:50;;;;;;;3.88;1.20;;;;;;;18.26;88.95;95622.28;4962989;28;24994;-73
2022/09/09 09:01:40;;;;;;;4.00;1.20;;;;;;;18.63;86.85;95619.56;4963999;28;24498;-74
2022/09/09 09:04:23;;;;;;;3.83;1.02;;;;;;;18.98;84.81;95623.97;4966711;28;24438;-74
2022/09/09 09:07:04;;;;;;;4.47;1.20;;;;;;;19.26;84.79;95621.25;4971298;28;24437;-75
2022/09/09 09:09:37;;;;;;;4.25;1.40;;;;;;;19.72;85.42;95617.47;4971156;28;24477;-75
2022/09/09 09:12:17;;;;;;;6.38;1.38;;;;;;;19.96;83.33;95614.13;4962617;28;24527;-75
2022/09/09 09:14:47;;;;;;;6.43;1.20;;;;;;;19.79;81.68;95620.28;4964302;28;24453;-75
2022/09/09 09:17:16;;;;;;;2.10;1.13;;;;;;;19.31;84.98;95613.72;4971360;28;24442;-75
2022/09/09 09:19:44;;;;;;;5.85;1.23;;;;;;;18.94;85.79;95606.91;4971419;28;24438;-74
2022/09/09 09:22:17;;;;;;;3.70;1.10;;;;;;;18.97;85.77;95608.41;4962773;28;24439;-74
2022/09/09 09:24:52;;;;;;;3.53;1.08;;;;;;;19.12;84.32;95611.31;4970973;28;24437;-75
2022/09/09 09:27:31;;;;;;;2.95;0.90;;;;;;;19.00;84.17;95608.94;4966485;28;25029;-74
2022/09/09 09:30:00;;;;;;;3.73;1.00;;;;;;;18.75;86.95;95604.44;4961707;28;24538;-75
2022/09/09 09:32:31;;;;;;;4.10;1.10;;;;;;;18.54;88.55;95602.06;4970680;28;24444;-74
2022/09/09 09:35:04;;;;;;;5.28;1.05;;;;;;;18.51;84.97;95591.91;4970800;28;24516;-75
2022/09/09 09:37:33;;;;;;;4.95;1.00;;;;;;;18.49;85.03;95592.03;4971149;28;25248;-75
2022/09/09 09:40:10;;;;;;;5.35;1.00;;;;;;;18.35;85.09;95593.41;4970593;28;24445;-74
2022/09/09 09:42:39;;;;;;;2.60;0.90;;;;;;;18.19;83.89;95595.00;4969334;28;24497;-76
2022/09/09 09:45:10;;;;;;;6.97;1.08;;;;;;;18.10;84.84;95589.69;4971433;28;24531;-75
2022/09/09 09:47:36;;;;;;;6.60;1.27;;;;;;;17.79;86.68;95590.94;4969112;28;24524;-75
2022/09/09 09:50:04;;;;;;;4.85;1.05;;;;;;;17.82;86.56;95594.09;4970511;28;25339;-75
2022/09/09 09:52:34;;;;;;;5.75;1.20;;;;;;;17.85;85.72;95585.13;4970771;28;24442;-75
2022/09/09 09:55:06;;;;;;;2.67;0.88;;;;;;;17.79;86.18;95580.47;4971124;28;24519;-75
2022/09/09 09:57:34;;;;;;;3.00;1.00;;;;;;;17.79;86.49;95581.28;4965176;28;24452;-75
2022/09/09 10:00:08;;;;;;;3.22;1.20;;;;;;;17.80;89.03;95571.66;4970259;28;24984;-76
2022/09/09 10:02:40;;;;;;;3.17;1.17;;;;;;;17.74;86.49;95578.25;4971055;28;24425;-75
2022/09/09 10:05:14;;;;;;;4.82;0.90;;;;;;;17.86;85.41;95582.34;4966904;28;24500;-75
2022/09/09 10:07:43;;;;;;;3.45;1.00;;;;;;;17.94;87.35;95584.25;4967526;28;24799;-77
2022/09/09 10:10:15;;;;;;;3.83;1.20;;;;;;;17.97;89.93;95586.56;4969839;28;24520;-76
2022/09/09 10:12:53;;;;;;;5.13;1.15;;;;;;;18.04;91.74;95595.50;4970689;28;24525;-76
2022/09/09 10:15:36;;;;;;;4.03;1.30;;;;;;;17.99;93.58;95595.13;4966328;28;24433;-76
2022/09/09 10:18:16;;;;;;;5.68;1.40;;;;;;;17.81;88.63;95586.38;4970453;28;24434;-75
2022/09/09 10:20:50;;;;;;;4.85;0.90;;;;;;;17.80;88.03;95590.00;4967436;28;24433;-76
2022/09/09 10:23:30;;;;;;;4.57;1.20;;;;;;;17.80;86.60;95579.50;4966040;28;24521;-76
2022/09/09 10:26:13;;;;;;;4.13;1.17;;;;;;;17.84;85.88;95586.09;4966588;28;24445;-76
2022/09/09 10:29:00;;;;;;;6.50;1.30;;;;;;;17.82;82.96;95593.28;4968679;28;24444;-76
2022/09/09 10:31:38;;;;;;;2.45;0.82;;;;;;;17.62;79.45;95595.94;4965002;28;24452;-76
2022/09/09 10:34:27;;;;;;;2.40;1.10;;;;;;;17.59;79.84;95593.63;4972163;28;24440;-76
2022/09/09 10:36:54;;;;;;;2.83;0.80;;;;;;;17.46;78.78;95594.88;4966600;28;24440;-76
2022/09/09 10:39:35;;;;;;;2.45;0.60;;;;;;;17.31;75.70;95608.44;4974046;28;24434;-76
2022/09/09 10:42:06;;;;;;;2.17;0.80;;;;;;;17.20;80.19;95618.25;4969508;28;24581;-76
2022/09/09 10:44:47;;;;;;;1.73;0.63;;;;;;;16.87;77.92;95628.19;4971255;28;24464;-75
2022/09/09 10:47:35;;;;;;;1.88;0.68;;;;;;;16.77;81.27;95630.81;4973385;28;24445;-75
2022/09/09 10:50:31;;;;;;;1.83;0.68;;;;;;;16.24;86.89;95630.28;4972567;28;24449;-76
2022/09/09 10:53:09;;;;;;;2.80;0.80;;;;;;;16.10;91.90;95640.19;4968038;28;25188;-76
2022/09/09 10:55:40;;;;;;;3.55;0.80;;;;;;;15.78;95.67;95653.38;4973466;28;24433;-75
2022/09/09 10:58:14;;;;;;;4.05;0.80;;;;;;;15.79;97.88;95656.81;4971537;28;24430;-76
2022/09/09 11:00:45;;;;;;;4.07;0.95;;;;;;;15.66;100.00;95667.50;4973539;28;24441;-75
2022/09/09 11:03:20;;;;;;;1.73;0.80;;;;;;;15.74;100.00;95670.28;4971360;28;24446;-76
2022/09/09 11:05:50;;;;;;;2.63;0.75;;;;;;;15.59;100.00;95672.38;4977911;28;24509;-76
2022/09/09 11:08:19;;;;;;;3.80;1.25;;;;;;;15.49;100.00;95674.91;4973771;28;24433;-76
2022/09/09 11:10:52;;;;;;;2.57;1.00;;;;;;;15.39;100.00;95671.44;4966941;28;24512;-76
2022/09/09 11:13:24;;;;;;;3.03;0.90;;;;;;;15.32;100.00;95666.88;4973260;28;24548;-76
2022/09/09 11:15:53;;;;;;;2.22;0.65;;;;;;;15.32;100.00;95664.25;4973540;28;24444;-76
2022/09/09 11:18:24;;;;;;;1.70;0.60;;;;;;;15.25;100.00;95659.53;4968827;28;24460;-76
2022/09/09 11:20:55;;;;;;;1.90;0.60;;;;;;;15.32;100.00;95657.25;4972908;28;24450;-76
2022/09/09 11:23:28;;;;;;;1.90;0.60;;;;;;;15.61;100.00;95653.94;4960731;28;24520;-76
2022/09/09 11:26:03;;;;;;;4.95;0.85;;;;;;;15.82;100.00;95646.13;4964191;28;24493;-76
2022/09/09 11:28:47;;;;;;;1.08;0.38;;;;;;;16.13;100.00;95634.69;4973047;28;24526;-76
2022/09/09 11:31:30;;;;;;;3.10;0.70;;;;;;;16.34;100.00;95631.16;4970552;28;24469;-76
2022/09/09 11:34:14;;;;;;;1.00;0.50;;;;;;;16.49;100.00;95621.94;4961530;28;24427;-76
2022/09/09 11:37:02;;;;;;;2.00;0.90;;;;;;;16.31;100.00;95620.97;4969140;28;25252;-76
2022/09/09 11:40:00;;;;;;;2.25;0.50;;;;;;;16.56;100.00;95615.22;4962257;28;24445;-76
2022/09/09 11:42:27;;;;;;;3.33;0.85;;;;;;;16.61;100.00;95604.34;4969616;28;25006;-77
2022/09/09 11:44:54;;;;;;;3.77;0.60;;;;;;;16.77;100.00;95602.06;4971455;28;24444;-76